createdAt,value
2018-05-27T00:01:05.852Z,21.30
2018-05-27T00:03:39.558Z,21.30
2018-05-27T00:06:13.231Z,21.30
2018-05-27T00:08:46.970Z,21.10
2018-05-27T00:11:20.772Z,21.10
2018-05-27T00:13:54.396Z,21.00
2018-05-27T00:16:27.875Z,21.10
2018-05-27T00:19:01.473Z,21.00
2018-05-27T00:21:35.175Z,20.80
2018-05-27T00:24:08.869Z,20.70
2018-05-27T00:26:42.660Z,20.90
2018-05-27T00:29:16.274Z,21.00
2018-05-27T00:31:49.990Z,20.90
2018-05-27T00:34:23.786Z,20.90
2018-05-27T00:36:57.598Z,20.80
2018-05-27T00:39:31.406Z,20.60
2018-05-27T00:42:05.003Z,20.80
2018-05-27T00:44:39.428Z,20.70
2018-05-27T00:47:13.230Z,20.70
2018-05-27T00:49:46.830Z,20.50
2018-05-27T00:52:21.096Z,20.40
2018-05-27T00:54:55.557Z,20.60
2018-05-27T00:57:29.280Z,20.50
2018-05-27T01:00:02.806Z,20.50
2018-05-27T01:02:37.289Z,20.40
2018-05-27T01:05:10.935Z,20.40
2018-05-27T01:07:44.697Z,20.20
2018-05-27T01:10:19.227Z,20.10
2018-05-27T01:12:52.932Z,20.20
2018-05-27T01:15:27.549Z,20.20
2018-05-27T01:18:01.100Z,20.20
2018-05-27T01:20:34.658Z,20.10
2018-05-27T01:23:08.388Z,20.10
2018-05-27T01:25:42.163Z,20.00
2018-05-27T01:28:15.759Z,19.90
2018-05-27T01:30:49.256Z,19.90
2018-05-27T01:33:22.850Z,19.90
2018-05-27T01:35:56.632Z,19.90
2018-05-27T01:38:30.562Z,19.70
2018-05-27T01:41:04.349Z,19.70
2018-05-27T01:43:38.071Z,19.90
2018-05-27T01:46:11.862Z,19.80
2018-05-27T01:48:45.615Z,19.70
2018-05-27T01:51:19.394Z,19.70
2018-05-27T01:53:53.714Z,19.40
2018-05-27T01:56:27.423Z,19.40
2018-05-27T01:59:01.227Z,19.60
2018-05-27T02:01:34.930Z,19.60
2018-05-27T02:04:08.636Z,19.40
2018-05-27T02:06:42.898Z,19.30
2018-05-27T02:09:16.655Z,19.30
2018-05-27T02:11:50.254Z,19.40
2018-05-27T02:14:23.878Z,19.10
2018-05-27T02:16:58.270Z,19.10
2018-05-27T02:19:31.982Z,19.10
2018-05-27T02:22:05.486Z,19.00
2018-05-27T02:24:39.078Z,19.00
2018-05-27T02:27:13.707Z,19.00
2018-05-27T02:29:48.006Z,18.90
2018-05-27T02:32:21.932Z,18.80
2018-05-27T02:34:56.551Z,18.70
2018-05-27T02:37:30.360Z,18.70
2018-05-27T02:40:04.062Z,18.70
2018-05-27T02:42:37.632Z,18.80
2018-05-27T02:45:11.230Z,18.80
2018-05-27T02:47:44.836Z,18.70
2018-05-27T02:50:18.482Z,18.70
2018-05-27T02:52:52.104Z,18.60
2018-05-27T02:55:25.774Z,18.60
2018-05-27T02:57:59.464Z,18.50
2018-05-27T03:00:33.147Z,18.60
2018-05-27T03:03:06.778Z,18.60
2018-05-27T03:05:40.382Z,18.60
2018-05-27T03:08:13.879Z,18.70
2018-05-27T03:10:47.418Z,18.60
2018-05-27T03:13:21.171Z,18.60
2018-05-27T03:15:54.988Z,18.50
2018-05-27T03:18:29.266Z,18.30
2018-05-27T03:21:02.992Z,18.20
2018-05-27T03:23:37.290Z,18.10
2018-05-27T03:26:11.027Z,18.10
2018-05-27T03:28:45.311Z,18.20
2018-05-27T03:31:18.939Z,18.20
2018-05-27T03:33:52.595Z,18.30
2018-05-27T03:36:26.944Z,18.10
2018-05-27T03:39:01.372Z,18.10
2018-05-27T03:41:35.062Z,18.10
2018-05-27T03:44:08.554Z,18.00
2018-05-27T03:46:42.906Z,18.10
2018-05-27T03:49:16.514Z,18.10
2018-05-27T03:51:50.819Z,18.00
2018-05-27T03:54:25.378Z,18.00
2018-05-27T03:56:59.159Z,18.00
2018-05-27T03:59:32.759Z,18.00
2018-05-27T04:02:06.272Z,18.20
2018-05-27T04:05:01.456Z,18.00
2018-05-27T04:07:47.002Z,18.00
2018-05-27T04:10:20.843Z,18.00
2018-05-27T04:12:54.561Z,18.10
2018-05-27T04:15:28.192Z,18.30
2018-05-27T04:18:01.759Z,18.30
2018-05-27T04:20:36.060Z,18.30
2018-05-27T04:23:09.975Z,18.20
2018-05-27T04:25:43.477Z,18.20
2018-05-27T04:28:17.042Z,18.20
2018-05-27T04:30:50.783Z,18.00
2018-05-27T04:33:24.380Z,18.00
2018-05-27T04:35:58.700Z,18.10
2018-05-27T04:38:33.095Z,18.10
2018-05-27T04:41:06.827Z,18.10
2018-05-27T04:43:41.294Z,18.20
2018-05-27T04:46:15.046Z,18.20
2018-05-27T04:48:49.331Z,18.10
2018-05-27T04:51:23.004Z,18.20
2018-05-27T04:53:56.661Z,18.10
2018-05-27T04:56:30.272Z,18.10
2018-05-27T04:59:04.817Z,18.30
2018-05-27T05:01:38.483Z,18.30
2018-05-27T05:04:12.290Z,18.20
2018-05-27T05:06:45.996Z,18.40
2018-05-27T05:09:19.707Z,18.40
2018-05-27T05:11:54.000Z,18.40
2018-05-27T05:14:27.939Z,18.40
2018-05-27T05:17:01.600Z,18.40
2018-05-27T05:19:35.338Z,18.20
2018-05-27T05:22:09.163Z,18.40
2018-05-27T05:24:42.949Z,18.50
2018-05-27T05:27:17.441Z,18.60
2018-05-27T05:29:50.930Z,18.60
2018-05-27T05:32:25.342Z,18.60
2018-05-27T05:34:59.206Z,18.70
2018-05-27T05:37:33.481Z,18.80
2018-05-27T05:40:07.019Z,18.80
2018-05-27T05:42:40.823Z,18.80
2018-05-27T05:45:14.633Z,18.80
2018-05-27T05:47:49.074Z,19.10
2018-05-27T05:50:23.535Z,19.20
2018-05-27T05:52:57.270Z,19.20
2018-05-27T05:55:31.558Z,19.10
2018-05-27T05:58:05.303Z,19.10
2018-05-27T06:00:38.890Z,19.30
2018-05-27T06:03:12.419Z,19.40
2018-05-27T06:05:45.958Z,19.40
2018-05-27T06:08:20.518Z,19.60
2018-05-27T06:10:54.022Z,19.60
2018-05-27T06:13:27.723Z,19.60
2018-05-27T06:16:02.134Z,19.80
2018-05-27T06:18:35.745Z,19.80
2018-05-27T06:21:09.339Z,19.80
2018-05-27T06:23:43.759Z,19.90
2018-05-27T06:26:17.391Z,19.90
2018-05-27T06:28:51.871Z,20.00
2018-05-27T06:31:25.591Z,20.00
2018-05-27T06:33:59.396Z,20.00
2018-05-27T06:36:33.871Z,20.10
2018-05-27T06:39:07.642Z,20.10
2018-05-27T06:41:41.218Z,20.20
2018-05-27T06:44:16.650Z,20.30
2018-05-27T06:46:50.334Z,20.30
2018-05-27T06:49:23.983Z,20.30
2018-05-27T06:51:57.542Z,20.50
2018-05-27T06:54:31.275Z,20.50
2018-05-27T06:57:05.079Z,20.60
2018-05-27T06:59:38.887Z,20.60
2018-05-27T07:02:12.481Z,20.70
2018-05-27T07:04:47.048Z,20.80
2018-05-27T07:07:20.506Z,20.80
2018-05-27T07:09:54.309Z,20.80
2018-05-27T07:12:27.913Z,20.90
2018-05-27T07:15:01.417Z,20.90
2018-05-27T07:17:35.098Z,21.00
2018-05-27T07:20:09.498Z,21.20
2018-05-27T07:22:43.232Z,21.20
2018-05-27T07:25:16.941Z,21.30
2018-05-27T07:27:51.570Z,21.40
2018-05-27T07:30:25.367Z,21.40
2018-05-27T07:32:58.966Z,21.50
2018-05-27T07:35:32.574Z,21.60
2018-05-27T07:38:06.879Z,21.70
2018-05-27T07:40:42.203Z,21.80
2018-05-27T07:43:17.462Z,21.80
2018-05-27T07:45:51.278Z,21.80
2018-05-27T07:48:25.893Z,21.90
2018-05-27T07:50:59.702Z,21.90
2018-05-27T07:53:33.306Z,22.00
2018-05-27T07:56:06.994Z,22.10
2018-05-27T07:58:40.711Z,22.20
2018-05-27T08:01:14.470Z,22.40
2018-05-27T08:03:48.331Z,22.40
2018-05-27T08:06:22.134Z,22.50
2018-05-27T08:08:55.942Z,22.60
2018-05-27T08:11:30.559Z,22.80
2018-05-27T08:14:04.126Z,22.80
2018-05-27T08:16:37.823Z,22.90
2018-05-27T08:19:11.779Z,23.00
2018-05-27T08:21:45.378Z,23.10
2018-05-27T08:24:19.189Z,23.20
2018-05-27T08:26:52.684Z,23.30
2018-05-27T08:29:26.265Z,23.30
2018-05-27T08:31:59.944Z,23.40
2018-05-27T08:34:33.682Z,23.50
2018-05-27T08:37:07.459Z,23.60
2018-05-27T08:39:41.109Z,23.60
2018-05-27T08:42:15.007Z,23.80
2018-05-27T08:44:48.814Z,23.80
2018-05-27T08:47:22.615Z,23.90
2018-05-27T08:49:57.850Z,24.10
2018-05-27T08:52:31.650Z,24.20
2018-05-27T08:55:05.466Z,24.20
2018-05-27T08:57:40.087Z,24.40
2018-05-27T09:00:13.897Z,24.40
2018-05-27T09:02:49.004Z,24.50
2018-05-27T09:05:22.739Z,24.50
2018-05-27T09:07:56.230Z,24.70
2018-05-27T09:10:29.806Z,24.80
2018-05-27T09:13:03.403Z,24.80
2018-05-27T09:15:37.229Z,25.00
2018-05-27T09:18:10.814Z,25.10
2018-05-27T09:20:44.362Z,25.30
2018-05-27T09:23:18.143Z,25.30
2018-05-27T09:25:51.878Z,25.50
2018-05-27T09:28:25.754Z,25.60
2018-05-27T09:31:00.154Z,25.70
2018-05-27T09:33:33.652Z,25.70
2018-05-27T09:36:08.226Z,25.80
2018-05-27T09:38:41.804Z,25.80
2018-05-27T09:41:15.559Z,25.90
2018-05-27T09:43:49.411Z,26.10
2018-05-27T09:46:24.039Z,26.20
2018-05-27T09:48:57.540Z,26.10
2018-05-27T09:51:31.256Z,26.30
2018-05-27T09:54:04.834Z,26.50
2018-05-27T09:56:38.409Z,26.60
2018-05-27T09:59:12.723Z,26.70
2018-05-27T10:01:46.244Z,26.60
2018-05-27T10:04:19.763Z,26.70
2018-05-27T10:06:53.274Z,26.80
2018-05-27T10:09:27.131Z,26.90
2018-05-27T10:12:01.575Z,27.00
2018-05-27T10:14:35.154Z,26.90
2018-05-27T10:17:08.978Z,27.10
2018-05-27T10:19:42.470Z,27.20
2018-05-27T10:22:16.110Z,27.40
2018-05-27T10:24:51.329Z,27.50
2018-05-27T10:27:25.132Z,27.50
2018-05-27T10:29:59.763Z,27.80
2018-05-27T10:32:33.379Z,27.80
2018-05-27T10:35:06.959Z,27.90
2018-05-27T10:37:40.477Z,28.10
2018-05-27T10:40:15.564Z,28.10
2018-05-27T10:42:50.111Z,28.30
2018-05-27T10:45:24.706Z,28.30
2018-05-27T10:47:58.447Z,28.30
2018-05-27T10:50:33.070Z,28.30
2018-05-27T10:53:06.737Z,28.30
2018-05-27T10:55:40.547Z,28.40
2018-05-27T10:58:14.082Z,28.50
2018-05-27T11:00:47.675Z,28.60
2018-05-27T11:03:21.195Z,28.70
2018-05-27T11:05:54.771Z,28.80
2018-05-27T11:08:28.474Z,28.80
2018-05-27T11:11:02.083Z,29.00
2018-05-27T11:13:36.494Z,29.20
2018-05-27T11:16:10.305Z,29.20
2018-05-27T11:18:44.115Z,29.10
2018-05-27T11:21:17.909Z,29.20
2018-05-27T11:23:52.542Z,29.50
2018-05-27T11:26:26.047Z,29.50
2018-05-27T11:28:59.586Z,29.70
2018-05-27T11:31:33.546Z,29.70
2018-05-27T11:34:07.267Z,29.90
2018-05-27T11:36:40.840Z,29.90
2018-05-27T11:39:14.558Z,30.20
2018-05-27T11:41:48.228Z,30.20
2018-05-27T11:44:21.965Z,30.20
2018-05-27T11:46:55.965Z,30.30
2018-05-27T11:49:30.395Z,30.20
2018-05-27T11:52:04.062Z,30.20
2018-05-27T11:54:37.801Z,30.30
2018-05-27T11:57:11.418Z,30.30
2018-05-27T11:59:45.203Z,30.60
2018-05-27T12:02:19.015Z,30.60
2018-05-27T12:04:52.614Z,30.80
2018-05-27T12:07:26.413Z,30.90
2018-05-27T12:10:00.121Z,30.80
2018-05-27T12:12:34.027Z,30.90
2018-05-27T12:15:07.672Z,30.70
2018-05-27T12:17:41.438Z,30.90
2018-05-27T12:20:15.855Z,31.10
2018-05-27T12:22:49.658Z,31.10
2018-05-27T12:25:23.462Z,31.30
2018-05-27T12:27:57.338Z,31.40
2018-05-27T12:30:31.790Z,31.30
2018-05-27T12:33:06.187Z,31.30
2018-05-27T12:35:39.733Z,31.30
2018-05-27T12:38:13.310Z,31.40
2018-05-27T12:40:47.119Z,31.00
2018-05-27T12:43:20.694Z,31.00
2018-05-27T12:45:54.270Z,31.30
2018-05-27T12:48:28.015Z,31.50
2018-05-27T12:51:01.742Z,31.60
2018-05-27T12:53:35.334Z,31.50
2018-05-27T12:56:09.134Z,31.80
2018-05-27T12:58:42.943Z,31.80
2018-05-27T13:01:16.749Z,31.90
2018-05-27T13:03:50.355Z,32.20
2018-05-27T13:06:24.974Z,32.40
2018-05-27T13:08:58.776Z,32.40
2018-05-27T13:11:33.409Z,32.50
2018-05-27T13:14:07.212Z,32.40
2018-05-27T13:16:40.925Z,32.50
2018-05-27T13:19:14.615Z,32.20
2018-05-27T13:21:49.127Z,32.60
2018-05-27T13:24:23.055Z,32.50
2018-05-27T13:26:56.742Z,32.60
2018-05-27T13:29:30.314Z,32.80
2018-05-27T13:32:04.054Z,32.80
2018-05-27T13:34:37.666Z,32.80
2018-05-27T13:37:11.351Z,32.40
2018-05-27T13:39:45.031Z,32.60
2018-05-27T13:42:18.666Z,32.80
2018-05-27T13:44:53.155Z,32.80
2018-05-27T13:47:26.895Z,32.80
2018-05-27T13:50:01.511Z,33.00
2018-05-27T13:52:35.318Z,32.90
2018-05-27T13:55:09.149Z,32.80
2018-05-27T13:57:43.635Z,31.90
2018-05-27T14:00:18.041Z,32.10
2018-05-27T14:02:51.798Z,32.00
2018-05-27T14:05:26.066Z,32.40
2018-05-27T14:07:59.674Z,32.40
2018-05-27T14:10:34.088Z,32.70
2018-05-27T14:13:07.772Z,32.70
2018-05-27T14:15:41.416Z,32.80
2018-05-27T14:18:15.721Z,32.60
2018-05-27T14:20:49.435Z,32.50
2018-05-27T14:23:23.950Z,32.80
2018-05-27T14:25:58.491Z,33.10
2018-05-27T14:28:32.167Z,33.10
2018-05-27T14:31:06.587Z,33.00
2018-05-27T14:33:40.286Z,33.00
2018-05-27T14:36:14.024Z,32.90
2018-05-27T14:38:47.727Z,33.10
2018-05-27T14:41:22.132Z,33.10
2018-05-27T14:43:55.933Z,33.00
2018-05-27T14:46:29.636Z,33.10
2018-05-27T14:49:03.236Z,33.00
2018-05-27T14:51:36.738Z,33.30
2018-05-27T14:54:10.430Z,33.10
2018-05-27T14:56:44.142Z,32.80
2018-05-27T14:59:17.955Z,32.50
2018-05-27T15:01:51.754Z,32.20
2018-05-27T15:04:25.432Z,32.20
2018-05-27T15:06:59.194Z,32.20
2018-05-27T15:09:33.059Z,32.10
2018-05-27T15:12:06.878Z,31.90
2018-05-27T15:14:40.582Z,31.90
2018-05-27T15:17:14.286Z,31.80
2018-05-27T15:19:48.078Z,31.70
2018-05-27T15:22:21.794Z,31.80
2018-05-27T15:24:55.578Z,31.90
2018-05-27T15:27:29.203Z,31.70
2018-05-27T15:30:02.890Z,31.70
2018-05-27T15:32:36.810Z,31.50
2018-05-27T15:35:10.523Z,31.20
2018-05-27T15:37:44.078Z,31.10
2018-05-27T15:40:18.639Z,31.10
2018-05-27T15:42:52.438Z,31.10
2018-05-27T15:45:26.867Z,31.00
2018-05-27T15:48:00.463Z,31.00
2018-05-27T15:50:34.066Z,30.90
2018-05-27T15:53:08.368Z,30.80
2018-05-27T15:55:42.114Z,30.80
2018-05-27T15:58:15.963Z,30.90
2018-05-27T16:00:49.626Z,30.70
2018-05-27T16:03:23.158Z,30.60
2018-05-27T16:05:58.892Z,30.60
2018-05-27T16:08:32.446Z,30.50
2018-05-27T16:11:06.147Z,30.70
2018-05-27T16:13:39.691Z,30.70
2018-05-27T16:16:13.372Z,30.60
2018-05-27T16:18:46.972Z,30.60
2018-05-27T16:21:20.502Z,30.60
2018-05-27T16:23:54.150Z,30.50
2018-05-27T16:26:27.895Z,30.30
2018-05-27T16:29:01.765Z,30.30
2018-05-27T16:31:50.402Z,30.10
2018-05-27T16:34:24.123Z,30.00
2018-05-27T16:38:38.894Z,29.80
2018-05-27T16:41:12.531Z,29.60
2018-05-27T16:43:46.071Z,29.70
2018-05-27T16:46:19.706Z,29.60
2018-05-27T16:48:55.947Z,29.50
2018-05-27T16:51:29.686Z,29.40
2018-05-27T16:54:03.227Z,29.30
2018-05-27T16:56:36.971Z,29.40
2018-05-27T16:59:10.568Z,29.40
2018-05-27T17:01:45.071Z,29.30
2018-05-27T17:04:19.514Z,29.20
2018-05-27T17:06:53.214Z,29.20
2018-05-27T17:09:26.903Z,29.10
2018-05-27T17:12:00.826Z,28.90
2018-05-27T17:14:34.470Z,28.90
2018-05-27T17:17:08.030Z,28.80
2018-05-27T17:19:41.826Z,28.70
2018-05-27T17:22:15.339Z,28.70
2018-05-27T17:24:49.660Z,28.50
2018-05-27T17:27:23.151Z,28.50
2018-05-27T17:29:56.878Z,28.50
2018-05-27T17:32:30.650Z,28.40
2018-05-27T17:35:04.463Z,28.30
2018-05-27T17:37:38.270Z,28.30
2018-05-27T17:40:11.959Z,28.00
2018-05-27T17:42:46.362Z,27.20
2018-05-27T17:45:20.294Z,27.20
2018-05-27T17:47:54.718Z,27.20
2018-05-27T17:50:28.526Z,27.10
2018-05-27T17:53:02.150Z,26.90
2018-05-27T17:55:36.134Z,26.80
2018-05-27T17:58:09.806Z,26.70
2018-05-27T18:00:43.633Z,26.40
2018-05-27T18:03:17.970Z,26.50
2018-05-27T18:05:51.763Z,26.50
2018-05-27T18:08:25.366Z,26.40
2018-05-27T18:10:59.184Z,26.30
2018-05-27T18:13:32.780Z,26.10
2018-05-27T18:16:06.383Z,26.00
2018-05-27T18:18:40.188Z,25.90
2018-05-27T18:21:13.739Z,26.10
2018-05-27T18:23:47.369Z,25.80
2018-05-27T18:26:20.998Z,25.90
2018-05-27T18:28:54.786Z,25.90
2018-05-27T18:31:28.427Z,25.60
2018-05-27T18:34:02.061Z,25.70
2018-05-27T18:36:36.504Z,25.80
2018-05-27T18:39:10.078Z,25.80
2018-05-27T18:41:43.848Z,25.90
2018-05-27T18:44:17.655Z,25.80
2018-05-27T18:46:51.430Z,25.70
2018-05-27T18:49:26.060Z,25.80
2018-05-27T18:51:59.652Z,25.70
2018-05-27T18:54:34.065Z,25.70
2018-05-27T18:57:07.719Z,25.70
2018-05-27T18:59:42.098Z,25.70
2018-05-27T19:02:15.718Z,25.70
2018-05-27T19:04:49.374Z,25.60
2018-05-27T19:07:22.966Z,25.30
2018-05-27T19:09:56.525Z,25.50
2018-05-27T19:12:30.099Z,25.50
2018-05-27T19:15:04.386Z,25.50
2018-05-27T19:17:38.119Z,25.40
2018-05-27T19:20:11.628Z,25.40
2018-05-27T19:22:46.036Z,25.30
2018-05-27T19:25:20.423Z,25.10
2018-05-27T19:27:54.070Z,25.10
2018-05-27T19:30:27.763Z,24.90
2018-05-27T19:33:02.085Z,24.80
2018-05-27T19:35:36.478Z,24.80
2018-05-27T19:38:10.098Z,24.80
2018-05-27T19:40:44.014Z,24.80
2018-05-27T19:43:17.641Z,24.60
2018-05-27T19:45:51.479Z,24.70
2018-05-27T19:48:25.842Z,24.40
2018-05-27T19:50:59.470Z,24.50
2018-05-27T19:53:33.242Z,24.60
2018-05-27T19:56:06.734Z,24.70
2018-05-27T19:58:40.335Z,24.70
2018-05-27T20:01:13.960Z,24.70
2018-05-27T20:03:47.650Z,24.70
2018-05-27T20:06:21.338Z,24.60
2018-05-27T20:08:55.061Z,24.60
2018-05-27T20:11:29.683Z,24.50
2018-05-27T20:14:03.486Z,24.50
2018-05-27T20:16:38.015Z,24.50
2018-05-27T20:19:11.783Z,24.40
2018-05-27T20:21:46.230Z,24.40
2018-05-27T20:24:19.807Z,24.40
2018-05-27T20:26:54.246Z,24.40
2018-05-27T20:29:28.797Z,24.20
2018-05-27T20:32:02.411Z,24.20
2018-05-27T20:34:36.194Z,24.20
2018-05-27T20:37:09.787Z,24.20
2018-05-27T20:39:43.455Z,24.20
2018-05-27T20:42:17.157Z,24.20
2018-05-27T20:44:51.679Z,23.90
2018-05-27T20:47:25.299Z,23.90
2018-05-27T20:49:58.901Z,24.00
2018-05-27T20:52:32.503Z,24.10
2018-05-27T20:55:06.224Z,24.20
2018-05-27T20:57:40.028Z,24.20
2018-05-27T21:00:14.689Z,24.10
2018-05-27T21:02:48.450Z,24.10
2018-05-27T21:05:23.083Z,24.10
2018-05-27T21:07:56.883Z,24.00
2018-05-27T21:10:30.396Z,24.10
2018-05-27T21:13:04.075Z,24.00
2018-05-27T21:15:37.690Z,23.80
2018-05-27T21:18:11.495Z,23.90
2018-05-27T21:20:45.303Z,23.90
2018-05-27T21:23:19.182Z,23.80
2018-05-27T21:25:52.803Z,23.90
2018-05-27T21:28:26.398Z,23.80
2018-05-27T21:31:00.152Z,23.80
2018-05-27T21:33:33.923Z,23.80
2018-05-27T21:36:07.427Z,23.80
2018-05-27T21:38:41.530Z,23.80
2018-05-27T21:41:15.340Z,23.20
2018-05-27T21:43:49.129Z,23.20
2018-05-27T21:46:22.820Z,23.20
2018-05-27T21:48:56.558Z,22.90
2018-05-27T21:51:30.047Z,23.00
2018-05-27T21:54:03.751Z,23.20
2018-05-27T21:56:37.537Z,23.30
2018-05-27T21:59:11.364Z,23.30
2018-05-27T22:01:45.778Z,23.30
2018-05-27T22:04:19.426Z,23.30
2018-05-27T22:06:52.946Z,23.20
2018-05-27T22:09:26.475Z,23.20
2018-05-27T22:12:01.002Z,23.30
2018-05-27T22:14:34.811Z,23.30
2018-05-27T22:17:08.406Z,23.30
2018-05-27T22:19:42.919Z,22.90
2018-05-27T22:22:16.426Z,22.90
2018-05-27T22:24:50.242Z,22.80
2018-05-27T22:27:23.926Z,22.70
2018-05-27T22:29:57.439Z,22.90
2018-05-27T22:32:31.139Z,23.00
2018-05-27T22:35:04.849Z,23.00
2018-05-27T22:37:38.650Z,23.00
2018-05-27T22:40:12.458Z,22.70
2018-05-27T22:42:45.960Z,22.90
2018-05-27T22:45:19.658Z,22.90
2018-05-27T22:47:53.157Z,22.90
2018-05-27T22:50:26.704Z,22.90
2018-05-27T22:53:00.258Z,22.90
2018-05-27T22:55:33.784Z,22.90
2018-05-27T22:58:07.458Z,22.90
2018-05-27T23:00:41.898Z,22.80
2018-05-27T23:03:15.687Z,22.90
2018-05-27T23:05:50.198Z,22.90
2018-05-27T23:08:23.911Z,22.80
2018-05-27T23:10:57.706Z,22.80
2018-05-27T23:13:31.279Z,22.80
2018-05-27T23:16:05.032Z,22.70
2018-05-27T23:18:38.921Z,22.60
2018-05-27T23:21:13.238Z,22.60
2018-05-27T23:23:47.015Z,22.50
2018-05-27T23:26:20.776Z,22.60
2018-05-27T23:28:54.559Z,22.60
2018-05-27T23:31:28.187Z,22.50
2018-05-27T23:34:02.171Z,22.50
2018-05-27T23:36:35.843Z,22.40
2018-05-27T23:39:09.440Z,22.50
2018-05-27T23:41:43.179Z,22.50
2018-05-27T23:44:17.052Z,22.50
2018-05-27T23:46:50.579Z,22.50
2018-05-27T23:49:24.080Z,22.40
2018-05-27T23:51:57.808Z,22.40
2018-05-27T23:54:31.458Z,22.40
2018-05-27T23:57:05.176Z,22.40
2018-05-27T23:59:38.826Z,22.30
